Time;durP1;ratioP1;P1;durP2;ratioP2;P2;SDS_P1;SDS_P2;PMS_P1;PMS_P2;Temp;Humidity;BMP_temperature;BMP_pressure;BME280_temperature;BME280_humidity;BME280_pressure;Samples;Min_cycle;Max_cycle;Signal;HPM_P1;HPM_P2
2023/08/15 00:00:55;;;;;;;2.67;2.57;;;23.60;51.20;;;;;;5036004;28;20700;-76
2023/08/15 00:03:21;;;;;;;2.43;2.33;;;23.60;51.20;;;;;;5018398;28;20320;-76
2023/08/15 00:05:46;;;;;;;1.70;1.60;;;23.60;51.20;;;;;;5034280;28;20222;-76
2023/08/15 00:08:12;;;;;;;2.33;2.23;;;23.60;51.20;;;;;;5022110;28;20225;-76
2023/08/15 00:10:37;;;;;;;2.40;2.30;;;23.60;51.20;;;;;;5021318;28;20225;-76
2023/08/15 00:13:03;;;;;;;2.50;2.40;;;23.60;51.30;;;;;;5022361;28;20267;-76
2023/08/15 00:15:30;;;;;;;2.70;2.60;;;23.60;51.20;;;;;;5020079;28;20261;-75
2023/08/15 00:17:56;;;;;;;2.33;2.23;;;23.60;51.30;;;;;;5041605;28;20229;-75
2023/08/15 00:20:21;;;;;;;2.50;2.40;;;23.60;51.30;;;;;;5022227;28;21041;-76
2023/08/15 00:22:47;;;;;;;2.40;2.30;;;23.60;51.20;;;;;;5023245;28;20218;-75
2023/08/15 00:25:13;;;;;;;2.40;2.30;;;23.60;51.30;;;;;;5020948;28;20222;-76
2023/08/15 00:27:38;;;;;;;2.40;2.30;;;23.60;51.30;;;;;;5023909;28;20222;-76
2023/08/15 00:30:05;;;;;;;2.40;2.30;;;23.60;51.30;;;;;;5021759;28;20214;-76
2023/08/15 00:32:35;;;;;;;2.47;2.37;;;23.60;51.20;;;;;;5040483;28;20226;-75
2023/08/15 00:35:04;;;;;;;2.43;2.33;;;23.60;51.30;;;;;;5039192;28;20518;-76
2023/08/15 00:37:33;;;;;;;2.37;2.17;;;23.60;51.30;;;;;;5022312;28;20455;-76
2023/08/15 00:39:59;;;;;;;1.90;1.80;;;23.60;51.30;;;;;;5038461;28;21313;-75
2023/08/15 00:42:25;;;;;;;2.20;2.10;;;23.60;51.30;;;;;;5039890;28;20459;-77
2023/08/15 00:44:50;;;;;;;2.60;2.50;;;23.60;51.30;;;;;;5020466;28;20457;-77
2023/08/15 00:47:16;;;;;;;2.50;2.40;;;23.60;51.30;;;;;;5021624;28;20263;-76
2023/08/15 00:49:43;;;;;;;2.53;2.43;;;23.60;51.30;;;;;;5042321;28;20210;-76
2023/08/15 00:52:11;;;;;;;2.63;2.53;;;23.60;51.30;;;;;;5019626;28;20735;-76
2023/08/15 00:54:37;;;;;;;2.40;2.30;;;23.60;51.30;;;;;;5038897;28;20539;-76
2023/08/15 00:57:05;;;;;;;2.50;2.40;;;23.60;51.30;;;;;;5036408;28;20461;-76
2023/08/15 00:59:30;;;;;;;2.37;2.27;;;23.60;51.30;;;;;;5020492;28;21009;-76
2023/08/15 01:01:58;;;;;;;2.63;2.40;;;23.60;51.30;;;;;;5012982;28;20540;-78
2023/08/15 01:04:24;;;;;;;2.50;2.30;;;23.60;51.30;;;;;;5016574;28;20230;-79
2023/08/15 01:06:50;;;;;;;2.40;2.30;;;23.60;51.30;;;;;;5032610;28;20459;-78
2023/08/15 01:09:16;;;;;;;2.27;2.17;;;23.60;51.40;;;;;;5037466;28;20233;-79
2023/08/15 01:12:00;;;;;;;2.07;1.97;;;23.60;51.30;;;;;;5033672;28;20475;-79
2023/08/15 01:14:32;;;;;;;2.33;2.23;;;23.60;51.30;;;;;;5033686;28;20236;-78
2023/08/15 01:16:59;;;;;;;2.33;2.23;;;23.60;51.30;;;;;;5015656;28;20497;-79
2023/08/15 01:19:43;;;;;;;2.87;2.73;;;23.60;51.30;;;;;;5035395;28;20913;-78
2023/08/15 01:22:22;;;;;;;2.20;2.10;;;23.60;51.30;;;;;;4995548;28;21357;-79
2023/08/15 01:24:48;;;;;;;2.13;2.03;;;23.60;51.30;;;;;;4994686;28;20490;-78
2023/08/15 01:27:14;;;;;;;2.30;2.20;;;23.60;51.30;;;;;;4996935;28;20469;-79
2023/08/15 01:29:39;;;;;;;2.50;2.40;;;23.60;51.30;;;;;;4996908;28;21210;-79
2023/08/15 01:32:26;;;;;;;2.03;1.93;;;23.60;51.30;;;;;;4993713;28;20302;-78
2023/08/15 01:35:13;;;;;;;2.10;2.00;;;23.60;51.30;;;;;;4991779;28;20222;-79
2023/08/15 01:37:43;;;;;;;2.40;2.30;;;23.60;51.40;;;;;;4993816;28;20468;-78
2023/08/15 01:40:11;;;;;;;2.53;2.43;;;23.60;51.40;;;;;;4994563;28;20472;-78
2023/08/15 01:42:40;;;;;;;1.90;1.80;;;23.60;51.50;;;;;;4997096;28;20470;-79
2023/08/15 01:45:07;;;;;;;2.20;2.10;;;23.60;51.40;;;;;;4995315;28;20456;-78
2023/08/15 01:47:33;;;;;;;2.20;2.10;;;23.60;51.40;;;;;;4996670;28;20453;-78
2023/08/15 01:49:59;;;;;;;2.30;2.20;;;23.60;51.40;;;;;;4993265;28;20464;-79
2023/08/15 01:52:24;;;;;;;2.50;2.40;;;23.60;51.40;;;;;;4995060;28;20329;-78
2023/08/15 01:54:50;;;;;;;2.53;2.43;;;23.60;51.40;;;;;;4994756;28;20709;-78
2023/08/15 01:57:15;;;;;;;1.80;1.70;;;23.60;51.40;;;;;;4993540;28;20591;-78
2023/08/15 01:59:43;;;;;;;2.30;2.20;;;23.60;51.40;;;;;;4993969;28;20576;-77
2023/08/15 02:02:12;;;;;;;2.30;2.20;;;23.60;51.40;;;;;;4994950;28;20211;-78
2023/08/15 02:04:37;;;;;;;2.50;2.40;;;23.60;51.40;;;;;;4995183;28;20555;-78
2023/08/15 02:07:03;;;;;;;2.53;2.43;;;23.60;51.40;;;;;;4992707;28;20931;-78
2023/08/15 02:09:29;;;;;;;2.50;2.30;;;23.60;51.40;;;;;;4996802;28;20223;-78
2023/08/15 02:11:54;;;;;;;2.20;2.10;;;23.60;51.50;;;;;;4992965;28;20252;-78
2023/08/15 02:14:20;;;;;;;2.10;2.00;;;23.60;51.40;;;;;;4994100;28;20297;-82
2023/08/15 02:16:45;;;;;;;2.00;1.90;;;23.60;51.50;;;;;;4992440;28;20270;-82
2023/08/15 02:19:12;;;;;;;2.20;2.10;;;23.60;51.40;;;;;;4995016;28;20234;-82
2023/08/15 02:21:37;;;;;;;2.10;2.00;;;23.60;51.40;;;;;;5010430;28;20317;-82
2023/08/15 02:24:03;;;;;;;2.33;2.23;;;23.60;51.40;;;;;;5034986;28;20534;-79
2023/08/15 02:26:29;;;;;;;2.30;2.20;;;23.60;51.40;;;;;;5031683;28;20340;-78
2023/08/15 02:28:54;;;;;;;2.30;2.20;;;23.60;52.20;;;;;;5015351;28;20221;-78
2023/08/15 02:31:20;;;;;;;1.93;1.83;;;23.60;51.40;;;;;;5011434;28;21862;-79
2023/08/15 02:33:45;;;;;;;2.17;2.07;;;23.60;51.40;;;;;;5016836;28;20225;-78
2023/08/15 02:36:11;;;;;;;2.30;2.20;;;23.60;51.40;;;;;;5033036;28;20225;-78
2023/08/15 02:38:36;;;;;;;2.33;2.23;;;23.60;51.50;;;;;;5034069;28;20222;-77
2023/08/15 02:41:02;;;;;;;2.67;2.47;;;23.60;51.40;;;;;;5031028;28;20226;-77
2023/08/15 02:43:27;;;;;;;2.10;2.00;;;23.60;51.40;;;;;;5013799;28;20265;-77
2023/08/15 02:45:53;;;;;;;2.30;2.20;;;23.60;51.40;;;;;;5032128;28;20588;-77
2023/08/15 02:48:18;;;;;;;2.67;2.57;;;23.60;51.40;;;;;;5034876;28;20337;-77
2023/08/15 02:50:44;;;;;;;2.30;2.20;;;23.60;51.40;;;;;;5032740;28;20224;-77
2023/08/15 02:53:09;;;;;;;2.60;2.50;;;23.60;51.50;;;;;;5032183;28;20301;-77
2023/08/15 02:55:35;;;;;;;2.57;2.47;;;23.60;51.40;;;;;;5012939;28;20222;-77
2023/08/15 02:58:01;;;;;;;2.43;2.33;;;23.60;51.40;;;;;;5034693;28;20222;-77
2023/08/15 03:00:26;;;;;;;2.20;2.10;;;23.60;51.50;;;;;;5012856;28;20229;-78
2023/08/15 03:02:55;;;;;;;2.93;2.83;;;23.60;51.40;;;;;;5033504;28;20226;-78
2023/08/15 03:05:20;;;;;;;2.43;2.33;;;23.60;51.40;;;;;;5032429;28;20253;-78
2023/08/15 03:07:46;;;;;;;2.60;2.50;;;23.60;51.40;;;;;;5012890;28;20749;-78
2023/08/15 03:10:11;;;;;;;2.33;2.13;;;23.60;51.50;;;;;;5031564;28;20217;-78
2023/08/15 03:12:37;;;;;;;2.50;2.40;;;23.60;51.50;;;;;;5013938;28;20214;-78
2023/08/15 03:15:03;;;;;;;2.60;2.50;;;23.60;51.50;;;;;;5030868;28;20222;-78
2023/08/15 03:17:29;;;;;;;2.10;2.00;;;23.60;51.40;;;;;;5014209;28;20313;-78
2023/08/15 03:19:55;;;;;;;3.63;2.67;;;23.60;51.40;;;;;;5009604;28;20459;-78
2023/08/15 03:22:20;;;;;;;2.50;2.30;;;23.60;51.40;;;;;;5032032;28;20399;-78
2023/08/15 03:24:46;;;;;;;2.03;1.93;;;23.60;51.40;;;;;;5012924;28;20689;-78
2023/08/15 03:27:12;;;;;;;2.93;2.83;;;23.60;51.50;;;;;;5015042;28;20226;-78
2023/08/15 03:29:37;;;;;;;2.20;2.10;;;23.60;52.20;;;;;;5032616;28;20958;-79
2023/08/15 03:32:03;;;;;;;2.57;2.20;;;23.60;51.50;;;;;;5013317;28;20256;-78
2023/08/15 03:34:28;;;;;;;2.30;2.20;;;23.60;52.30;;;;;;5032112;28;20237;-78
2023/08/15 03:36:55;;;;;;;2.23;2.13;;;23.60;51.50;;;;;;5030138;28;20218;-78
2023/08/15 03:39:20;;;;;;;2.37;2.27;;;23.60;51.50;;;;;;5031328;28;20226;-78
2023/08/15 03:41:46;;;;;;;2.63;2.53;;;23.60;51.50;;;;;;5030400;28;20479;-79
2023/08/15 03:44:12;;;;;;;2.13;2.03;;;23.60;51.50;;;;;;5016637;28;20253;-79
2023/08/15 03:46:39;;;;;;;2.30;2.20;;;23.60;51.50;;;;;;5034700;28;20229;-79
2023/08/15 03:49:04;;;;;;;2.13;2.03;;;23.60;51.50;;;;;;5019570;28;20240;-79
2023/08/15 03:51:30;;;;;;;2.20;2.10;;;23.60;51.50;;;;;;5033459;28;20467;-78
2023/08/15 03:53:55;;;;;;;2.10;2.00;;;23.60;51.50;;;;;;5029686;28;20442;-78
2023/08/15 03:56:21;;;;;;;2.10;2.00;;;23.50;51.50;;;;;;5034769;28;20229;-78
2023/08/15 03:58:46;;;;;;;2.10;2.00;;;23.60;51.50;;;;;;5037769;28;20733;-78
2023/08/15 04:01:12;;;;;;;2.20;2.00;;;23.50;51.40;;;;;;5034111;28;20225;-79
2023/08/15 04:03:37;;;;;;;2.00;1.90;;;23.60;51.50;;;;;;5018622;28;20240;-78
2023/08/15 04:06:03;;;;;;;2.30;2.20;;;23.50;51.50;;;;;;5035349;28;20241;-78
2023/08/15 04:08:28;;;;;;;2.30;2.20;;;23.60;51.70;;;;;;5035027;28;20233;-77
2023/08/15 04:10:54;;;;;;;2.60;2.50;;;23.60;51.50;;;;;;5034527;28;20693;-77
2023/08/15 04:13:20;;;;;;;2.67;2.57;;;23.60;51.60;;;;;;5017474;28;20222;-80
2023/08/15 04:15:46;;;;;;;2.10;2.00;;;23.60;51.50;;;;;;5033341;28;20716;-78
2023/08/15 04:18:11;;;;;;;2.13;2.03;;;23.60;51.50;;;;;;5037332;28;20222;-80
2023/08/15 04:20:42;;;;;;;2.50;2.40;;;23.60;51.50;;;;;;5033715;28;20257;-80
2023/08/15 04:23:08;;;;;;;2.63;2.53;;;23.60;51.40;;;;;;5033427;28;20286;-78
2023/08/15 04:25:35;;;;;;;2.20;2.10;;;23.60;51.40;;;;;;5030472;28;20458;-80
2023/08/15 04:28:01;;;;;;;2.00;1.90;;;23.60;51.50;;;;;;5036861;28;20467;-73
2023/08/15 04:30:26;;;;;;;2.53;2.43;;;23.60;51.40;;;;;;5031213;28;20486;-75
2023/08/15 04:32:52;;;;;;;2.40;2.30;;;23.60;51.40;;;;;;5020838;28;20989;-77
2023/08/15 04:35:17;;;;;;;2.50;2.40;;;23.70;51.60;;;;;;5030466;28;20224;-77
2023/08/15 04:37:43;;;;;;;2.60;2.40;;;23.70;51.60;;;;;;5014295;28;20253;-79
2023/08/15 04:40:15;;;;;;;2.53;2.40;;;23.70;51.70;;;;;;5016493;28;20770;-77
2023/08/15 04:42:43;;;;;;;2.37;2.27;;;23.70;51.60;;;;;;5020087;28;20660;-73
2023/08/15 04:45:09;;;;;;;2.57;2.47;;;23.70;51.60;;;;;;5032329;28;20463;-75
2023/08/15 04:47:35;;;;;;;2.57;2.47;;;23.60;51.50;;;;;;5031046;28;20466;-75
2023/08/15 04:50:01;;;;;;;2.40;2.30;;;23.70;51.60;;;;;;5007212;28;20225;-75
2023/08/15 04:52:27;;;;;;;2.27;2.17;;;23.70;51.60;;;;;;5028500;28;20463;-74
2023/08/15 04:54:52;;;;;;;2.57;2.47;;;23.70;52.40;;;;;;5031852;28;20245;-75
2023/08/15 04:57:18;;;;;;;2.60;2.50;;;23.60;51.60;;;;;;5034173;28;20214;-75
2023/08/15 04:59:43;;;;;;;2.40;2.30;;;23.70;51.70;;;;;;5014221;28;20215;-75
2023/08/15 05:02:09;;;;;;;2.73;2.63;;;23.70;51.70;;;;;;5034512;28;20234;-75
2023/08/15 05:04:34;;;;;;;2.40;2.30;;;23.70;51.70;;;;;;5030336;28;20642;-74
2023/08/15 05:07:00;;;;;;;2.30;2.20;;;23.70;51.80;;;;;;5032002;28;20226;-75
2023/08/15 05:09:28;;;;;;;2.10;2.00;;;23.70;51.70;;;;;;5028875;28;20701;-74
2023/08/15 05:11:54;;;;;;;2.40;2.30;;;23.70;51.70;;;;;;5031453;28;20222;-75
2023/08/15 05:14:19;;;;;;;2.60;2.50;;;23.70;51.70;;;;;;5029818;28;20463;-75
2023/08/15 05:16:45;;;;;;;2.43;2.33;;;23.70;51.70;;;;;;5026152;28;20222;-75
2023/08/15 05:19:10;;;;;;;2.50;2.40;;;23.70;51.70;;;;;;5033511;28;20225;-76
2023/08/15 05:21:36;;;;;;;2.40;2.30;;;23.70;51.80;;;;;;5027079;28;20237;-76
2023/08/15 05:24:01;;;;;;;2.30;2.20;;;23.70;51.80;;;;;;5030303;28;20823;-74
2023/08/15 05:26:27;;;;;;;2.80;2.60;;;23.70;51.70;;;;;;5023749;28;20229;-73
2023/08/15 05:28:53;;;;;;;2.23;2.13;;;23.70;51.80;;;;;;5029747;28;20980;-75
2023/08/15 05:31:19;;;;;;;2.50;2.30;;;23.70;51.80;;;;;;5026042;28;20697;-74
2023/08/15 05:33:44;;;;;;;2.50;2.40;;;23.70;51.80;;;;;;5029135;28;20284;-76
2023/08/15 05:36:10;;;;;;;2.83;2.63;;;23.70;51.80;;;;;;5031910;28;20621;-74
2023/08/15 05:38:36;;;;;;;2.13;2.03;;;23.70;51.80;;;;;;5016066;28;20318;-73
2023/08/15 05:41:01;;;;;;;2.67;2.47;;;23.70;51.80;;;;;;5033951;28;20825;-75
2023/08/15 05:43:27;;;;;;;2.30;2.20;;;23.70;51.80;;;;;;5033408;28;20529;-74
2023/08/15 05:45:52;;;;;;;2.50;2.40;;;23.70;51.80;;;;;;5033569;28;20229;-76
2023/08/15 05:48:18;;;;;;;2.37;2.27;;;23.70;51.80;;;;;;5036056;28;20230;-78
2023/08/15 05:50:43;;;;;;;2.40;2.30;;;23.70;51.90;;;;;;5034765;28;20249;-73
2023/08/15 05:53:09;;;;;;;2.73;2.53;;;23.70;51.90;;;;;;5036023;28;20226;-76
2023/08/15 05:55:35;;;;;;;2.13;2.03;;;23.70;51.90;;;;;;5035170;28;20229;-74
2023/08/15 05:58:00;;;;;;;2.20;2.03;;;23.70;51.90;;;;;;5034658;28;20271;-77
2023/08/15 06:00:26;;;;;;;2.20;2.10;;;23.70;51.90;;;;;;5014964;28;20262;-74
2023/08/15 06:02:51;;;;;;;2.60;2.50;;;23.70;52.00;;;;;;5016028;28;20229;-74
2023/08/15 06:05:17;;;;;;;2.53;2.43;;;23.70;51.90;;;;;;5036586;28;20218;-74
2023/08/15 06:07:42;;;;;;;2.50;2.40;;;23.70;52.00;;;;;;5035565;28;20210;-74
2023/08/15 06:10:08;;;;;;;2.30;2.20;;;23.70;51.90;;;;;;5017710;28;20754;-76
2023/08/15 06:12:34;;;;;;;2.17;2.07;;;23.70;52.00;;;;;;5015605;28;20218;-74
2023/08/15 06:15:00;;;;;;;2.20;2.10;;;23.70;52.00;;;;;;5033030;28;20895;-74
2023/08/15 06:17:25;;;;;;;2.33;2.23;;;23.70;52.00;;;;;;5033644;28;21272;-77
2023/08/15 06:19:51;;;;;;;2.20;2.10;;;23.70;52.00;;;;;;5033072;28;20221;-75
2023/08/15 06:22:16;;;;;;;2.50;2.40;;;23.70;51.90;;;;;;5033701;28;20348;-74
2023/08/15 06:24:42;;;;;;;2.30;2.20;;;23.70;52.00;;;;;;5013052;28;20340;-74
2023/08/15 06:27:07;;;;;;;2.63;2.43;;;23.70;52.00;;;;;;5033386;28;20234;-76
2023/08/15 06:29:33;;;;;;;3.07;2.87;;;23.70;52.00;;;;;;5015767;28;20230;-75
2023/08/15 06:31:59;;;;;;;2.57;2.30;;;23.70;52.00;;;;;;5014895;28;20218;-77
2023/08/15 06:34:25;;;;;;;2.17;2.07;;;23.70;52.00;;;;;;5033542;28;20214;-77
2023/08/15 06:36:50;;;;;;;2.50;2.40;;;23.70;52.00;;;;;;5031239;28;20459;-78
2023/08/15 06:39:16;;;;;;;2.30;2.20;;;23.70;52.00;;;;;;5032506;28;20222;-78
2023/08/15 06:41:41;;;;;;;2.77;2.47;;;23.70;52.00;;;;;;5032097;28;20271;-77
2023/08/15 06:44:07;;;;;;;2.40;2.20;;;23.70;52.00;;;;;;5032267;28;20719;-78
2023/08/15 06:46:33;;;;;;;2.43;2.23;;;23.70;52.00;;;;;;5012629;28;20222;-78
2023/08/15 06:48:58;;;;;;;2.37;2.27;;;23.70;52.00;;;;;;5033866;28;20225;-78
2023/08/15 06:51:24;;;;;;;2.10;2.00;;;23.70;52.00;;;;;;5032026;28;20327;-78
2023/08/15 06:53:50;;;;;;;2.23;2.13;;;23.70;52.00;;;;;;5013925;28;21265;-76
2023/08/15 06:56:15;;;;;;;2.20;2.10;;;23.70;52.00;;;;;;5030920;28;20214;-78
2023/08/15 06:58:41;;;;;;;2.37;2.20;;;23.70;52.00;;;;;;5033496;28;20455;-78
2023/08/15 07:01:06;;;;;;;2.00;1.90;;;23.70;52.00;;;;;;5010986;28;20224;-78
2023/08/15 07:03:33;;;;;;;2.03;1.93;;;23.80;52.10;;;;;;5032707;28;20337;-77
2023/08/15 07:05:59;;;;;;;2.40;2.30;;;23.70;52.00;;;;;;5030272;28;20306;-79
2023/08/15 07:08:24;;;;;;;1.87;1.77;;;23.70;52.10;;;;;;5033637;28;20541;-77
2023/08/15 07:10:57;;;;;;;2.33;2.23;;;23.70;52.90;;;;;;5010546;28;20253;-77
2023/08/15 07:13:22;;;;;;;2.13;2.03;;;23.80;52.20;;;;;;5032932;28;20218;-77
2023/08/15 07:15:55;;;;;;;2.30;2.10;;;23.70;52.10;;;;;;5013130;28;20464;-77
2023/08/15 07:18:21;;;;;;;2.50;2.30;;;23.80;52.20;;;;;;5032996;28;20224;-77
2023/08/15 07:20:46;;;;;;;2.17;2.07;;;23.70;52.10;;;;;;5031392;28;20456;-77
2023/08/15 07:23:12;;;;;;;1.90;1.80;;;23.80;52.30;;;;;;5014554;28;20245;-78
2023/08/15 07:25:43;;;;;;;2.00;1.90;;;23.80;52.30;;;;;;5030793;28;20222;-78
2023/08/15 07:28:09;;;;;;;2.20;2.10;;;23.80;52.20;;;;;;5014188;28;20287;-78
2023/08/15 07:30:34;;;;;;;2.20;2.10;;;23.80;52.20;;;;;;5013387;28;20458;-78
2023/08/15 07:33:00;;;;;;;2.40;2.20;;;23.80;52.30;;;;;;5032669;28;20261;-78
2023/08/15 07:35:25;;;;;;;2.10;2.00;;;23.80;52.20;;;;;;5031664;28;20245;-78
2023/08/15 07:37:51;;;;;;;2.10;2.00;;;23.80;52.20;;;;;;5033198;28;20225;-78
2023/08/15 07:40:20;;;;;;;2.00;1.90;;;23.80;52.20;;;;;;5031742;28;20218;-78
2023/08/15 07:42:49;;;;;;;2.20;2.10;;;23.80;52.20;;;;;;5015796;28;20226;-81
2023/08/15 07:45:16;;;;;;;2.10;2.00;;;23.80;52.20;;;;;;5032554;28;20509;-76
2023/08/15 07:47:41;;;;;;;2.13;2.03;;;23.80;52.20;;;;;;5034943;28;20575;-84
2023/08/15 07:50:15;;;;;;;1.80;1.70;;;23.80;52.20;;;;;;5012690;28;20473;-84
2023/08/15 07:52:41;;;;;;;2.27;2.17;;;23.80;52.20;;;;;;5032855;28;20222;-83
2023/08/15 07:55:08;;;;;;;2.07;1.97;;;23.80;52.20;;;;;;5033001;28;21452;-84
2023/08/15 07:57:33;;;;;;;2.10;2.00;;;23.80;52.20;;;;;;5016888;28;20447;-84
2023/08/15 07:59:59;;;;;;;3.47;2.00;;;23.80;52.20;;;;;;5012852;28;20792;-78
2023/08/15 08:02:25;;;;;;;2.00;1.90;;;23.80;52.20;;;;;;5031368;28;20659;-83
2023/08/15 08:04:50;;;;;;;1.90;1.80;;;23.80;52.20;;;;;;5014508;28;20238;-84
2023/08/15 08:07:16;;;;;;;1.90;1.80;;;23.80;52.20;;;;;;5031718;28;20419;-84
2023/08/15 08:09:42;;;;;;;1.80;1.70;;;23.80;52.20;;;;;;5033489;28;20218;-84
2023/08/15 08:12:08;;;;;;;2.10;2.00;;;23.80;52.20;;;;;;5030644;28;20282;-81
2023/08/15 08:14:34;;;;;;;1.73;1.63;;;23.80;52.20;;;;;;5015236;28;20240;-80
2023/08/15 08:17:00;;;;;;;1.97;1.87;;;23.80;52.20;;;;;;5013143;28;21080;-80
2023/08/15 08:19:25;;;;;;;2.00;1.90;;;23.70;52.10;;;;;;5015071;28;20733;-79
2023/08/15 08:21:51;;;;;;;1.83;1.73;;;23.80;52.20;;;;;;5014957;28;20244;-80
2023/08/15 08:24:16;;;;;;;2.20;2.10;;;23.80;52.20;;;;;;5032808;28;20794;-81
2023/08/15 08:26:42;;;;;;;1.50;1.40;;;23.80;52.30;;;;;;5014747;28;20747;-81
2023/08/15 08:29:08;;;;;;;1.77;1.67;;;23.80;52.30;;;;;;5033952;28;20218;-81
2023/08/15 08:31:34;;;;;;;1.60;1.50;;;23.80;52.20;;;;;;5034750;28;20462;-80
2023/08/15 08:33:59;;;;;;;1.60;1.50;;;23.80;52.20;;;;;;5036461;28;20214;-78
2023/08/15 08:36:25;;;;;;;1.87;1.77;;;23.80;52.20;;;;;;5034224;28;20361;-80
2023/08/15 08:38:50;;;;;;;1.77;1.67;;;23.80;52.30;;;;;;5018648;28;21091;-81
2023/08/15 08:41:16;;;;;;;1.80;1.70;;;23.80;52.20;;;;;;5032841;28;20673;-81
2023/08/15 08:43:42;;;;;;;1.70;1.60;;;23.80;52.20;;;;;;5038095;28;20705;-79
2023/08/15 08:46:08;;;;;;;1.80;1.70;;;23.80;52.20;;;;;;5017985;28;20707;-81
2023/08/15 08:48:34;;;;;;;1.80;1.70;;;23.80;52.20;;;;;;5037385;28;21272;-80
2023/08/15 08:50:59;;;;;;;1.53;1.43;;;23.80;52.20;;;;;;5017169;28;20478;-80
2023/08/15 08:53:25;;;;;;;1.60;1.50;;;23.80;52.20;;;;;;5018678;28;20662;-79
2023/08/15 08:55:51;;;;;;;2.07;1.97;;;23.80;52.20;;;;;;5036012;28;20761;-78
2023/08/15 08:58:17;;;;;;;1.60;1.50;;;23.80;52.20;;;;;;5013161;28;20622;-78
2023/08/15 09:00:44;;;;;;;1.70;1.60;;;23.80;52.20;;;;;;5035529;28;20462;-78
2023/08/15 09:03:09;;;;;;;1.70;1.60;;;23.80;52.20;;;;;;5035630;28;22314;-77
2023/08/15 09:05:35;;;;;;;1.70;1.60;;;23.80;52.20;;;;;;5035774;28;20450;-79
2023/08/15 09:08:02;;;;;;;1.67;1.57;;;23.80;52.20;;;;;;5036199;28;20226;-77
2023/08/15 09:10:28;;;;;;;1.70;1.60;;;23.80;52.20;;;;;;5034450;28;20359;-78
2023/08/15 09:12:58;;;;;;;1.70;1.60;;;23.80;52.20;;;;;;5017706;28;20467;-77
2023/08/15 09:15:23;;;;;;;1.70;1.60;;;23.80;52.20;;;;;;5033983;28;20222;-77
2023/08/15 09:17:49;;;;;;;1.93;1.83;;;23.80;52.20;;;;;;5016813;28;20490;-79
2023/08/15 09:20:18;;;;;;;1.80;1.70;;;23.80;52.20;;;;;;5036142;28;20222;-77
2023/08/15 09:22:45;;;;;;;1.40;1.30;;;23.80;52.20;;;;;;5017033;28;20720;-79
2023/08/15 09:25:14;;;;;;;2.20;2.00;;;23.80;52.30;;;;;;5015513;28;20467;-77
2023/08/15 09:27:41;;;;;;;1.40;1.30;;;23.80;52.20;;;;;;5019383;28;20505;-78
2023/08/15 09:30:08;;;;;;;1.93;1.73;;;23.80;52.10;;;;;;5015571;28;20478;-78
2023/08/15 09:32:34;;;;;;;1.63;1.53;;;23.80;52.20;;;;;;5036572;28;20501;-78
2023/08/15 09:34:59;;;;;;;1.87;1.70;;;23.80;52.20;;;;;;5016591;28;21031;-78
2023/08/15 09:37:25;;;;;;;1.50;1.40;;;23.80;52.20;;;;;;5036164;28;20771;-77
2023/08/15 09:39:51;;;;;;;1.33;1.23;;;23.80;52.10;;;;;;5014553;28;20222;-77
2023/08/15 09:42:21;;;;;;;1.70;1.60;;;23.80;52.20;;;;;;5016290;28;21327;-77
2023/08/15 09:44:49;;;;;;;1.60;1.50;;;23.80;52.10;;;;;;5032673;28;20275;-77
2023/08/15 09:47:15;;;;;;;1.60;1.50;;;23.80;52.20;;;;;;5016061;28;20921;-78
2023/08/15 09:49:41;;;;;;;1.60;1.50;;;23.80;52.10;;;;;;5019185;28;20481;-78
2023/08/15 09:52:08;;;;;;;1.73;1.53;;;23.80;52.10;;;;;;5015315;28;20284;-77
2023/08/15 09:54:35;;;;;;;1.50;1.40;;;23.80;52.10;;;;;;5017346;28;20785;-78
2023/08/15 09:57:01;;;;;;;1.77;1.67;;;23.80;52.10;;;;;;5029863;28;20528;-78
2023/08/15 09:59:26;;;;;;;1.50;1.40;;;23.80;52.10;;;;;;5015522;28;21535;-78
2023/08/15 10:01:53;;;;;;;1.50;1.40;;;23.90;52.30;;;;;;5031162;28;20706;-80
2023/08/15 10:04:22;;;;;;;1.67;1.57;;;23.80;52.10;;;;;;5016806;28;20249;-81
2023/08/15 10:06:49;;;;;;;1.50;1.40;;;23.90;52.20;;;;;;5014441;28;20517;-82
2023/08/15 10:09:15;;;;;;;1.50;1.40;;;23.90;52.20;;;;;;5037177;28;20470;-80
2023/08/15 10:11:45;;;;;;;1.33;1.23;;;23.90;52.20;;;;;;5014709;28;20471;-76
2023/08/15 10:14:14;;;;;;;1.47;1.37;;;23.90;52.20;;;;;;5034837;28;21303;-82
2023/08/15 10:16:40;;;;;;;1.43;1.33;;;23.90;52.20;;;;;;5014013;28;20462;-80
2023/08/15 10:19:10;;;;;;;1.40;1.30;;;23.90;52.20;;;;;;5018308;28;20920;-78
2023/08/15 10:21:54;;;;;;;1.53;1.43;;;23.90;52.20;;;;;;5013674;28;20494;-80
2023/08/15 10:24:21;;;;;;;1.50;1.40;;;23.90;52.20;;;;;;5035368;28;21006;-78
2023/08/15 10:26:46;;;;;;;2.00;1.80;;;23.90;52.20;;;;;;5015391;28;20503;-80
2023/08/15 10:29:12;;;;;;;1.40;1.30;;;23.90;52.20;;;;;;5019123;28;20550;-80
2023/08/15 10:31:40;;;;;;;1.50;1.40;;;23.90;52.10;;;;;;5015921;28;20222;-78
2023/08/15 10:34:09;;;;;;;2.17;1.40;;;23.90;52.20;;;;;;5037004;28;21067;-76
2023/08/15 10:36:34;;;;;;;1.70;1.60;;;23.90;52.10;;;;;;5034930;28;20956;-77
2023/08/15 10:39:07;;;;;;;1.30;1.20;;;23.90;52.10;;;;;;5036339;28;20479;-75
2023/08/15 10:41:35;;;;;;;1.60;1.50;;;23.90;52.10;;;;;;5034575;28;20284;-74
2023/08/15 10:44:04;;;;;;;1.50;1.40;;;23.90;52.20;;;;;;5034966;28;21028;-77
2023/08/15 10:46:31;;;;;;;1.30;1.20;;;23.90;52.20;;;;;;5035833;28;20511;-73
2023/08/15 10:49:01;;;;;;;1.33;1.23;;;23.90;52.10;;;;;;5018375;28;20490;-75
2023/08/15 10:51:38;;;;;;;1.40;1.30;;;23.90;52.10;;;;;;5033805;28;20996;-73
2023/08/15 10:54:06;;;;;;;1.67;1.57;;;23.90;52.10;;;;;;5018414;28;20525;-74
2023/08/15 10:56:34;;;;;;;1.60;1.50;;;23.90;52.10;;;;;;5033535;28;20455;-73
2023/08/15 10:59:06;;;;;;;1.30;1.20;;;23.90;52.10;;;;;;5037045;28;20944;-74
2023/08/15 11:01:32;;;;;;;1.20;1.10;;;23.90;52.10;;;;;;5034125;28;20451;-75
2023/08/15 11:03:58;;;;;;;1.13;1.10;;;23.90;52.10;;;;;;5036596;28;22046;-75
2023/08/15 11:06:24;;;;;;;1.57;1.47;;;23.90;52.10;;;;;;5034194;28;20305;-74
2023/08/15 11:08:53;;;;;;;1.40;1.30;;;23.90;52.10;;;;;;5016228;28;20883;-75
2023/08/15 11:11:18;;;;;;;1.40;1.30;;;23.90;52.10;;;;;;5016270;28;20222;-74
2023/08/15 11:13:46;;;;;;;1.67;1.57;;;23.90;52.10;;;;;;5038230;28;20492;-74
2023/08/15 11:16:15;;;;;;;1.60;1.50;;;23.90;52.00;;;;;;5017028;28;20232;-76
2023/08/15 11:18:41;;;;;;;1.53;1.43;;;23.90;52.10;;;;;;5014468;28;20984;-75
2023/08/15 11:21:09;;;;;;;1.43;1.33;;;23.90;52.10;;;;;;5012644;28;20472;-74
2023/08/15 11:23:35;;;;;;;1.40;1.30;;;23.90;52.00;;;;;;5016891;28;24273;-75
2023/08/15 11:26:10;;;;;;;1.27;1.17;;;23.90;52.00;;;;;;5013731;28;20461;-77
2023/08/15 11:28:36;;;;;;;1.33;1.23;;;23.90;52.00;;;;;;5028034;28;20237;-75
2023/08/15 11:31:06;;;;;;;1.40;1.30;;;23.90;52.00;;;;;;5015195;28;20855;-75
2023/08/15 11:33:32;;;;;;;1.30;1.20;;;23.90;52.00;;;;;;5015935;28;20464;-77
2023/08/15 11:36:01;;;;;;;1.37;1.27;;;23.90;52.00;;;;;;5013056;28;20452;-73
2023/08/15 11:38:28;;;;;;;1.40;1.30;;;23.90;52.00;;;;;;5012823;28;20226;-73
2023/08/15 11:40:59;;;;;;;1.60;1.50;;;23.90;52.00;;;;;;5015031;28;20454;-77
2023/08/15 11:43:34;;;;;;;1.17;1.10;;;23.90;52.00;;;;;;5014627;28;20476;-79
2023/08/15 11:46:05;;;;;;;1.50;1.40;;;23.90;52.00;;;;;;5013326;28;20552;-80
2023/08/15 11:48:31;;;;;;;1.40;1.30;;;23.90;52.00;;;;;;5017684;28;20462;-80
2023/08/15 11:50:57;;;;;;;1.50;1.40;;;23.90;52.00;;;;;;5013086;28;20750;-79
2023/08/15 11:53:23;;;;;;;1.50;1.40;;;24.00;52.10;;;;;;5014060;28;20560;-80
2023/08/15 11:55:48;;;;;;;1.40;1.30;;;23.90;52.00;;;;;;5012740;28;21049;-79
2023/08/15 11:58:30;;;;;;;1.50;1.40;;;23.90;52.00;;;;;;5016825;28;20230;-79
2023/08/15 12:01:06;;;;;;;1.47;1.37;;;24.00;52.00;;;;;;5012360;28;20245;-79
2023/08/15 12:03:35;;;;;;;1.50;1.40;;;24.00;52.00;;;;;;5012787;28;20998;-78
2023/08/15 12:06:05;;;;;;;1.60;1.50;;;23.90;52.00;;;;;;5016391;28;20490;-79
2023/08/15 12:08:30;;;;;;;1.40;1.30;;;23.90;51.90;;;;;;5020787;28;22112;-80
2023/08/15 12:10:58;;;;;;;1.40;1.30;;;24.00;52.00;;;;;;5015858;28;20555;-80
2023/08/15 12:13:31;;;;;;;1.57;1.47;;;23.90;52.00;;;;;;5021096;28;20301;-80
2023/08/15 12:15:56;;;;;;;1.23;1.13;;;24.00;52.00;;;;;;5018160;28;21013;-80
2023/08/15 12:18:22;;;;;;;1.30;1.20;;;24.00;52.00;;;;;;5019978;28;20551;-80
2023/08/15 12:20:47;;;;;;;1.30;1.20;;;24.00;52.00;;;;;;5019335;28;20222;-79
2023/08/15 12:23:13;;;;;;;1.40;1.30;;;24.00;52.00;;;;;;5022749;28;20261;-79
2023/08/15 12:25:39;;;;;;;1.30;1.20;;;24.00;52.00;;;;;;5035689;28;20232;-78
2023/08/15 12:28:05;;;;;;;1.40;1.30;;;24.00;52.10;;;;;;5037814;28;20249;-78
2023/08/15 12:30:31;;;;;;;1.50;1.40;;;24.00;52.00;;;;;;5034155;28;20230;-79
2023/08/15 12:32:56;;;;;;;1.70;1.60;;;23.90;52.00;;;;;;5039349;28;20807;-79
2023/08/15 12:35:22;;;;;;;1.40;1.30;;;24.00;52.00;;;;;;5038080;28;20785;-79
2023/08/15 12:37:47;;;;;;;1.60;1.50;;;24.00;52.00;;;;;;5039510;28;20344;-78
2023/08/15 12:40:13;;;;;;;1.40;1.30;;;24.00;52.00;;;;;;5018674;28;20226;-79
2023/08/15 12:42:38;;;;;;;1.43;1.33;;;24.00;52.00;;;;;;5034746;28;20598;-78
2023/08/15 12:45:04;;;;;;;1.50;1.40;;;24.00;52.00;;;;;;5035646;28;21001;-78